Terminal Aerodrome Forecast
Issued by NWS Louisville, KY

Home | Current Version | Previous Version | Text Only | Print | Product List | Glossary On
Versions: 1 2 3 4 5 6 7 8 9 10 11 12 13
866
FTUS43 KLMK 040523
TAFBWG
TAF
KBWG 040523Z 0406/0506 31007KT P6SM FEW025 BKN035
     FM041200 31004KT P6SM BKN025 OVC035
     FM041600 30006KT P6SM SCT030=

USA.gov is the U.S. government's official web portal to all federal, state and local government web resources and services.